createdAt,value
2023-02-05T00:01:27.702Z,13.48
2023-02-05T00:06:30.295Z,12.57
2023-02-05T00:11:32.941Z,15.02
2023-02-05T00:16:35.957Z,13.15
2023-02-05T00:21:38.717Z,13.02
2023-02-05T00:26:41.808Z,12.68
2023-02-05T00:31:44.505Z,15.32
2023-02-05T00:36:47.885Z,15.15
2023-02-05T00:41:50.572Z,13.93
2023-02-05T00:46:53.429Z,12.68
2023-02-05T00:51:55.987Z,15.77
2023-02-05T00:56:59.028Z,12.93
2023-02-05T01:02:01.663Z,14.85
2023-02-05T01:07:04.250Z,13.98
2023-02-05T01:12:06.945Z,15.18
2023-02-05T01:17:09.500Z,14.98
2023-02-05T01:22:12.168Z,16.13
2023-02-05T01:27:15.236Z,14.23
2023-02-05T01:32:18.316Z,15.18
2023-02-05T01:37:22.077Z,15.00
2023-02-05T01:42:30.011Z,16.27
2023-02-05T01:47:32.574Z,14.85
2023-02-05T01:52:35.409Z,14.82
2023-02-05T01:57:38.739Z,15.68
2023-02-05T02:02:41.817Z,14.50
2023-02-05T02:07:44.764Z,15.43
2023-02-05T02:12:50.153Z,15.13
2023-02-05T02:18:18.084Z,12.68
2023-02-05T02:23:53.792Z,16.15
2023-02-05T02:29:04.181Z,13.35
2023-02-05T02:34:22.900Z,14.10
2023-02-05T02:39:57.607Z,13.05
2023-02-05T02:45:03.485Z,13.40
2023-02-05T02:50:14.091Z,14.80
2023-02-05T02:55:19.741Z,14.52
2023-02-05T03:00:27.073Z,14.95
2023-02-05T03:05:30.785Z,12.18
2023-02-05T03:10:41.176Z,13.73
2023-02-05T03:15:45.616Z,15.13
2023-02-05T03:20:57.160Z,13.73
2023-02-05T03:26:00.053Z,15.85
2023-02-05T03:31:44.717Z,12.50
2023-02-05T03:37:02.016Z,14.43
2023-02-05T03:42:48.284Z,14.00
2023-02-05T03:48:15.974Z,15.38
2023-02-05T03:53:30.844Z,14.25
2023-02-05T03:58:42.005Z,16.38
2023-02-05T04:03:44.964Z,15.43
2023-02-05T04:08:47.884Z,15.95
2023-02-05T04:13:51.531Z,14.20
2023-02-05T04:18:54.215Z,16.70
2023-02-05T04:23:57.441Z,16.58
2023-02-05T04:29:01.073Z,15.52
2023-02-05T04:34:06.655Z,14.40
2023-02-05T04:39:09.330Z,12.93
2023-02-05T04:44:11.880Z,14.52
2023-02-05T04:49:14.694Z,12.32
2023-02-05T04:54:17.465Z,15.50
2023-02-05T04:59:20.346Z,14.13
2023-02-05T05:04:23.121Z,12.40
2023-02-05T05:09:25.781Z,12.70
2023-02-05T05:14:28.860Z,13.48
2023-02-05T05:19:31.533Z,16.13
2023-02-05T05:24:34.175Z,13.30
2023-02-05T05:29:37.383Z,12.02
2023-02-05T05:34:39.969Z,15.65
2023-02-05T05:40:00.872Z,13.50
2023-02-05T05:45:03.891Z,15.03
2023-02-05T05:50:07.015Z,13.02
2023-02-05T05:55:09.652Z,13.75
2023-02-05T06:00:13.027Z,15.00
2023-02-05T06:05:15.721Z,15.75
2023-02-05T06:10:18.543Z,14.85
2023-02-05T06:15:22.159Z,15.18
2023-02-05T06:20:24.950Z,14.40
2023-02-05T06:25:27.572Z,16.92
2023-02-05T06:30:32.551Z,16.23
2023-02-05T06:35:35.509Z,16.17
2023-02-05T06:40:38.357Z,13.43
2023-02-05T06:45:40.951Z,14.45
2023-02-05T06:50:43.652Z,14.73
2023-02-05T06:55:46.310Z,13.70
2023-02-05T07:00:49.241Z,14.00
2023-02-05T07:05:51.771Z,14.15
2023-02-05T07:10:54.405Z,16.45
2023-02-05T07:15:57.509Z,14.35
2023-02-05T07:21:00.459Z,14.82
2023-02-05T07:26:12.605Z,16.38
2023-02-05T07:31:21.460Z,14.88
2023-02-05T07:36:24.106Z,13.90
2023-02-05T07:41:27.041Z,15.43
2023-02-05T07:46:29.655Z,17.67
2023-02-05T07:51:32.918Z,13.88
2023-02-05T07:56:35.539Z,14.60
2023-02-05T08:01:38.196Z,14.90
2023-02-05T08:06:40.828Z,16.42
2023-02-05T08:11:43.990Z,16.63
2023-02-05T08:16:46.633Z,19.50
2023-02-05T08:21:49.253Z,14.82
2023-02-05T08:26:51.918Z,15.57
2023-02-05T08:31:54.567Z,17.60
2023-02-05T08:36:57.846Z,16.77
2023-02-05T08:42:00.468Z,17.08
2023-02-05T08:47:03.099Z,16.13
2023-02-05T08:52:05.765Z,14.20
2023-02-05T08:57:08.668Z,14.93
2023-02-05T09:02:15.433Z,13.15
2023-02-05T09:07:18.293Z,12.43
2023-02-05T09:12:20.846Z,11.32
2023-02-05T09:17:23.537Z,7.10
2023-02-05T09:22:26.271Z,8.43
2023-02-05T09:27:28.835Z,8.63
2023-02-05T09:32:31.391Z,5.97
2023-02-05T09:37:33.991Z,6.53
2023-02-05T09:42:53.338Z,6.75
2023-02-05T09:48:08.514Z,6.13
2023-02-05T09:53:17.609Z,7.00
2023-02-05T09:58:27.183Z,4.65
2023-02-05T10:03:37.447Z,6.90
2023-02-05T10:09:09.744Z,6.80
2023-02-05T10:14:30.862Z,8.60
2023-02-05T10:19:44.154Z,10.47
2023-02-05T10:24:56.217Z,19.08
2023-02-05T10:30:20.339Z,15.02
2023-02-05T10:35:24.997Z,11.75
2023-02-05T10:40:41.043Z,11.20
2023-02-05T10:45:44.542Z,20.58
2023-02-05T10:51:15.366Z,14.55
2023-02-05T10:56:19.800Z,15.18
2023-02-05T11:01:33.696Z,13.38
2023-02-05T11:06:40.481Z,13.43
2023-02-05T11:11:44.471Z,13.93
2023-02-05T11:16:47.243Z,13.98
2023-02-05T11:21:57.368Z,18.67
2023-02-05T11:27:24.748Z,19.60
2023-02-05T11:32:36.269Z,15.90
2023-02-05T11:37:40.660Z,15.30
2023-02-05T11:42:50.385Z,20.10
2023-02-05T11:47:53.760Z,25.02
2023-02-05T11:53:08.909Z,17.92
2023-02-05T11:58:36.624Z,17.38
2023-02-05T12:03:39.821Z,18.25
2023-02-05T12:08:55.437Z,18.85
2023-02-05T12:14:16.777Z,18.08
2023-02-05T12:19:19.880Z,19.38
2023-02-05T12:24:45.298Z,19.95
2023-02-05T12:30:07.222Z,19.85
2023-02-05T12:40:33.836Z,17.02
2023-02-05T12:45:57.962Z,18.23
2023-02-05T12:51:18.367Z,17.85
2023-02-05T12:56:35.987Z,22.55
2023-02-05T13:01:38.489Z,24.30
2023-02-05T13:06:52.497Z,23.35
2023-02-05T13:12:00.994Z,24.98
2023-02-05T13:17:12.939Z,27.08
2023-02-05T13:28:02.239Z,30.65
2023-02-05T13:33:09.317Z,29.10
2023-02-05T13:38:14.689Z,31.38
2023-02-05T13:43:45.502Z,29.02
2023-02-05T13:49:03.220Z,31.98
2023-02-05T13:54:24.451Z,35.70
2023-02-05T13:59:39.253Z,34.97
2023-02-05T14:04:54.007Z,37.47
2023-02-05T14:10:00.880Z,36.28
2023-02-05T14:15:15.724Z,39.75
2023-02-05T14:20:24.420Z,38.22
2023-02-05T14:25:38.335Z,35.03
2023-02-05T14:30:49.089Z,36.75
2023-02-05T14:35:55.978Z,36.93
2023-02-05T14:41:10.876Z,34.97
2023-02-05T14:46:37.623Z,36.50
2023-02-05T14:51:48.487Z,37.47
2023-02-05T15:01:57.922Z,33.53
2023-02-05T15:07:07.317Z,29.15
2023-02-05T15:12:56.610Z,26.45
2023-02-05T15:18:29.054Z,24.38
2023-02-05T15:23:42.387Z,21.88
2023-02-05T15:29:11.520Z,20.67
2023-02-05T15:34:23.268Z,20.13
2023-02-05T15:39:38.234Z,17.90
2023-02-05T15:44:43.973Z,19.90
2023-02-05T15:49:50.532Z,19.27
2023-02-05T15:54:56.845Z,18.05
2023-02-05T16:00:07.852Z,18.65
2023-02-05T16:05:19.286Z,18.52
2023-02-05T16:10:27.786Z,14.30
2023-02-05T16:16:01.362Z,15.18
2023-02-05T16:21:31.796Z,20.48
2023-02-05T16:26:43.338Z,16.15
2023-02-05T16:31:46.502Z,16.40
2023-02-05T16:36:53.180Z,13.77
2023-02-05T16:42:06.272Z,15.23
2023-02-05T16:47:18.732Z,16.45
2023-02-05T16:52:32.799Z,15.10
2023-02-05T16:57:41.499Z,15.05
2023-02-05T17:02:47.392Z,16.50
2023-02-05T17:08:02.243Z,14.60
2023-02-05T17:13:06.072Z,14.45
2023-02-05T17:18:31.539Z,14.90
2023-02-05T17:23:34.109Z,15.75
2023-02-05T17:28:43.875Z,16.05
2023-02-05T17:33:50.195Z,16.08
2023-02-05T17:38:53.692Z,14.02
2023-02-05T17:43:57.253Z,16.33
2023-02-05T17:49:01.307Z,17.27
2023-02-05T17:54:04.945Z,18.35
2023-02-05T17:59:20.668Z,20.30
2023-02-05T18:04:28.702Z,21.00
2023-02-05T18:09:31.258Z,19.83
2023-02-05T18:14:40.012Z,19.35
2023-02-05T18:19:45.362Z,19.38
2023-02-05T18:24:47.963Z,21.77
2023-02-05T18:30:03.653Z,19.70
2023-02-05T18:35:06.903Z,19.73
2023-02-05T18:40:15.181Z,17.85
2023-02-05T18:45:18.560Z,17.63
2023-02-05T18:50:27.960Z,18.05
2023-02-05T18:55:35.831Z,25.23
2023-02-05T19:00:50.098Z,16.98
2023-02-05T19:05:56.200Z,15.50
2023-02-05T19:10:59.862Z,15.00
2023-02-05T19:16:12.843Z,13.67
2023-02-05T19:21:18.112Z,15.73
2023-02-05T19:26:26.254Z,15.45
2023-02-05T19:31:34.389Z,14.60
2023-02-05T19:36:38.311Z,14.88
2023-02-05T19:42:03.473Z,17.40
2023-02-05T19:47:08.624Z,16.60
2023-02-05T19:52:11.245Z,21.03
2023-02-05T19:57:13.830Z,15.80
2023-02-05T20:02:19.449Z,15.45
2023-02-05T20:07:22.060Z,16.85
2023-02-05T20:12:24.755Z,15.63
2023-02-05T20:17:28.708Z,14.10
2023-02-05T20:22:32.069Z,16.73
2023-02-05T20:27:34.800Z,14.63
2023-02-05T20:32:37.432Z,14.97
2023-02-05T20:37:40.079Z,15.97
2023-02-05T20:42:42.719Z,15.63
2023-02-05T20:47:45.530Z,17.53
2023-02-05T20:52:48.116Z,11.77
2023-02-05T20:57:50.724Z,14.53
2023-02-05T21:02:53.413Z,15.50
2023-02-05T21:07:56.519Z,17.60
2023-02-05T21:12:59.107Z,15.53
2023-02-05T21:18:01.749Z,15.55
2023-02-05T21:23:04.360Z,14.00
2023-02-05T21:28:07.413Z,13.43
2023-02-05T21:33:10.163Z,14.00
2023-02-05T21:38:12.784Z,16.40
2023-02-05T21:43:15.386Z,14.90
2023-02-05T21:48:17.982Z,13.10
2023-02-05T21:53:20.643Z,14.63
2023-02-05T21:58:23.215Z,12.80
2023-02-05T22:03:25.817Z,15.00
2023-02-05T22:08:28.335Z,14.60
2023-02-05T22:13:33.255Z,15.27
2023-02-05T22:19:01.750Z,13.30
2023-02-05T22:24:05.795Z,18.23
2023-02-05T22:29:12.838Z,11.53
2023-02-05T22:34:15.378Z,15.07
2023-02-05T22:39:17.990Z,9.57
2023-02-05T22:44:20.549Z,9.73
2023-02-05T22:49:23.097Z,10.67
2023-02-05T22:54:25.739Z,9.47
2023-02-05T22:59:29.503Z,10.73
2023-02-05T23:04:32.021Z,9.73
2023-02-05T23:09:34.636Z,10.60
2023-02-05T23:14:37.185Z,10.87
2023-02-05T23:19:39.735Z,10.87
2023-02-05T23:24:42.440Z,10.50
2023-02-05T23:29:45.006Z,7.13
2023-02-05T23:34:47.609Z,10.20
2023-02-05T23:39:50.291Z,8.03
2023-02-05T23:44:52.806Z,9.00
2023-02-05T23:49:55.327Z,8.60
2023-02-05T23:54:57.926Z,8.83
